Jacksonville, Florida
Current Conditions -  °F | °C
As of 6:56 AM on Sunday 23 Nov 2014 (Local Time) from KJAX Reporting Station
Haze Haze  
Wind Chill: 68°   Ceiling: 1500
Heat Index: 68°   Visibility: 4mi
Dew Point: 68°   Wind: 0mph
Humidity: 100%   Direction: NA
Pressure: 30.01"   Gusts: NA
Location:  30.32°N, 81.66°W
Report Text: KJAX 231156Z 00000KT 4SM BR SCT005 BKN015 OVC020 20/20 A3001 RMK AO2 RAEMM SLP162 P0007 60108 70108 T02000200 10211 20200 56006 $
Loading
Personal Weather Stations






























Interactive Weather Map New forecast layout! Learn more

10-Day Weather Forecast

Advertisements
Track Severe Weather on mobile